createdAt,value
2022-09-16T00:01:21.679Z,6.22
2022-09-16T00:03:50.229Z,6.50
2022-09-16T00:06:20.516Z,6.05
2022-09-16T00:08:49.448Z,7.20
2022-09-16T00:11:19.338Z,4.03
2022-09-16T00:13:48.047Z,6.85
2022-09-16T00:16:21.258Z,7.70
2022-09-16T00:18:50.166Z,7.60
2022-09-16T00:21:18.362Z,5.28
2022-09-16T00:23:46.551Z,6.53
2022-09-16T00:26:15.017Z,4.60
2022-09-16T00:28:43.177Z,5.38
2022-09-16T00:31:11.525Z,6.82
2022-09-16T00:33:41.249Z,9.32
2022-09-16T00:36:12.021Z,7.68
2022-09-16T00:38:40.770Z,6.07
2022-09-16T00:41:09.657Z,7.53
2022-09-16T00:43:53.475Z,6.20
2022-09-16T00:46:26.005Z,9.27
2022-09-16T00:48:55.817Z,8.40
2022-09-16T00:51:25.436Z,6.57
2022-09-16T00:53:58.089Z,4.82
2022-09-16T00:56:29.364Z,7.53
2022-09-16T00:59:04.989Z,6.30
2022-09-16T01:01:34.088Z,8.57
2022-09-16T01:04:05.602Z,5.55
2022-09-16T01:06:39.075Z,5.93
2022-09-16T01:09:07.905Z,6.80
2022-09-16T01:11:36.116Z,5.75
2022-09-16T01:14:19.330Z,6.60
2022-09-16T01:16:58.315Z,5.78
2022-09-16T01:19:44.884Z,10.40
2022-09-16T01:22:30.355Z,6.95
2022-09-16T01:25:04.965Z,6.55
2022-09-16T01:27:58.577Z,6.72
2022-09-16T01:31:01.214Z,8.98
2022-09-16T01:33:40.591Z,7.90
2022-09-16T01:36:20.046Z,6.53
2022-09-16T01:38:57.973Z,7.72
2022-09-16T01:41:32.305Z,8.00
2022-09-16T01:44:07.769Z,7.15
2022-09-16T01:46:44.567Z,8.30
2022-09-16T01:49:21.248Z,7.43
2022-09-16T01:51:57.077Z,6.03
2022-09-16T01:54:31.061Z,6.07
2022-09-16T01:57:05.675Z,8.20
2022-09-16T01:59:40.680Z,7.10
2022-09-16T02:02:17.919Z,9.52
2022-09-16T02:04:50.668Z,7.07
2022-09-16T02:07:23.497Z,7.78
2022-09-16T02:09:55.763Z,7.63
2022-09-16T02:12:28.212Z,9.00
2022-09-16T02:15:01.233Z,6.75
2022-09-16T02:17:35.994Z,9.80
2022-09-16T02:20:09.893Z,7.63
2022-09-16T02:22:41.650Z,9.45
2022-09-16T02:25:11.274Z,8.15
2022-09-16T02:27:42.057Z,7.15
2022-09-16T02:30:12.717Z,7.50
2022-09-16T02:32:47.240Z,9.60
2022-09-16T02:35:19.019Z,8.40
2022-09-16T02:37:51.413Z,8.13
2022-09-16T02:40:23.701Z,10.35
2022-09-16T02:42:52.331Z,7.38
2022-09-16T02:45:23.855Z,7.35
2022-09-16T02:48:01.721Z,7.50
2022-09-16T02:50:39.815Z,8.88
2022-09-16T02:53:16.943Z,8.35
2022-09-16T02:55:52.081Z,10.05
2022-09-16T02:58:20.795Z,9.05
2022-09-16T03:00:53.449Z,7.68
2022-09-16T03:03:23.477Z,7.38
2022-09-16T03:06:11.273Z,9.38
2022-09-16T03:08:40.745Z,9.63
2022-09-16T03:11:30.097Z,10.63
2022-09-16T03:14:13.311Z,10.60
2022-09-16T03:16:52.324Z,9.40
2022-09-16T03:19:27.944Z,8.85
2022-09-16T03:22:02.913Z,7.13
2022-09-16T03:24:43.327Z,8.30
2022-09-16T03:27:17.174Z,7.88
2022-09-16T03:29:52.438Z,9.07
2022-09-16T03:32:25.197Z,6.95
2022-09-16T03:35:00.256Z,6.68
2022-09-16T03:37:32.159Z,6.82
2022-09-16T03:40:04.114Z,6.53
2022-09-16T03:42:32.941Z,10.63
2022-09-16T03:45:01.096Z,6.68
2022-09-16T03:47:29.268Z,6.22
2022-09-16T03:49:58.836Z,6.70
2022-09-16T03:52:27.113Z,10.43
2022-09-16T03:54:55.273Z,8.55
2022-09-16T03:57:23.445Z,6.20
2022-09-16T03:59:51.580Z,6.97
2022-09-16T04:02:19.830Z,7.78
2022-09-16T04:04:48.040Z,7.03
2022-09-16T04:07:17.683Z,8.63
2022-09-16T04:09:45.905Z,8.23
2022-09-16T04:12:14.365Z,6.05
2022-09-16T04:14:42.642Z,7.72
2022-09-16T04:17:10.793Z,5.78
2022-09-16T04:19:39.013Z,6.00
2022-09-16T04:22:07.241Z,6.25
2022-09-16T04:24:36.845Z,6.57
2022-09-16T04:27:05.308Z,7.13
2022-09-16T04:29:33.514Z,7.90
2022-09-16T04:32:01.778Z,7.75
2022-09-16T04:34:30.057Z,6.00
2022-09-16T04:36:58.282Z,5.50
2022-09-16T04:39:26.428Z,6.25
2022-09-16T04:41:55.994Z,6.13
2022-09-16T04:44:24.217Z,6.15
2022-09-16T04:46:52.373Z,5.40
2022-09-16T04:49:20.994Z,6.15
2022-09-16T04:51:50.665Z,8.18
2022-09-16T04:54:19.248Z,7.55
2022-09-16T04:56:47.908Z,5.47
2022-09-16T04:59:17.452Z,7.18
2022-09-16T05:01:46.004Z,7.28
2022-09-16T05:04:14.284Z,7.07
2022-09-16T05:06:44.325Z,6.32
2022-09-16T05:09:13.731Z,6.63
2022-09-16T05:11:42.933Z,5.85
2022-09-16T05:14:15.911Z,6.63
2022-09-16T05:16:46.000Z,7.18
2022-09-16T05:19:15.245Z,8.90
2022-09-16T05:21:44.029Z,6.00
2022-09-16T05:24:13.469Z,5.13
2022-09-16T05:26:43.069Z,5.80
2022-09-16T05:29:13.558Z,7.07
2022-09-16T05:31:43.996Z,5.70
2022-09-16T05:34:16.764Z,5.75
2022-09-16T05:36:47.690Z,6.03
2022-09-16T05:39:23.286Z,5.95
2022-09-16T05:41:56.090Z,6.20
2022-09-16T05:44:24.394Z,8.05
2022-09-16T05:46:52.765Z,7.32
2022-09-16T05:49:23.718Z,8.18
2022-09-16T05:51:52.548Z,10.15
2022-09-16T05:54:23.350Z,9.93
2022-09-16T05:56:51.812Z,8.73
2022-09-16T05:59:20.165Z,8.23
2022-09-16T06:01:48.371Z,7.78
2022-09-16T06:04:17.053Z,7.70
2022-09-16T06:06:47.834Z,10.35
2022-09-16T06:09:18.285Z,8.05
2022-09-16T06:11:48.590Z,8.63
2022-09-16T06:14:18.284Z,10.68
2022-09-16T06:16:46.819Z,9.63
2022-09-16T06:19:17.230Z,11.45
2022-09-16T06:21:47.362Z,12.18
2022-09-16T06:24:17.588Z,11.52
2022-09-16T06:26:46.985Z,10.68
2022-09-16T06:29:16.089Z,9.63
2022-09-16T06:31:44.516Z,9.45
2022-09-16T06:34:16.592Z,12.90
2022-09-16T06:36:46.530Z,11.90
2022-09-16T06:39:15.929Z,7.47
2022-09-16T06:41:44.452Z,6.97
2022-09-16T06:44:12.724Z,5.63
2022-09-16T06:46:41.093Z,6.15
2022-09-16T06:49:11.111Z,6.30
2022-09-16T06:51:39.578Z,7.85
2022-09-16T06:54:09.972Z,5.80
2022-09-16T06:56:39.673Z,6.10
2022-09-16T06:59:08.187Z,7.13
2022-09-16T07:01:36.791Z,5.57
2022-09-16T07:04:08.254Z,11.65
2022-09-16T07:07:07.549Z,5.68
2022-09-16T07:09:27.497Z,7.57
2022-09-16T07:11:55.865Z,6.55
2022-09-16T07:14:24.295Z,4.97
2022-09-16T07:16:52.899Z,5.88
2022-09-16T07:19:21.943Z,6.60
2022-09-16T07:21:50.098Z,5.35
2022-09-16T07:24:18.481Z,4.50
2022-09-16T07:26:48.012Z,5.07
2022-09-16T07:29:18.419Z,4.97
2022-09-16T07:31:46.739Z,8.18
2022-09-16T07:34:15.024Z,5.35
2022-09-16T07:36:44.638Z,5.97
2022-09-16T07:39:13.820Z,5.47
2022-09-16T07:41:43.686Z,5.90
2022-09-16T07:44:14.669Z,6.40
2022-09-16T07:46:43.075Z,5.28
2022-09-16T07:49:14.527Z,5.95
2022-09-16T07:54:14.820Z,6.38
2022-09-16T07:56:44.643Z,5.63
2022-09-16T07:59:18.567Z,6.00
2022-09-16T08:01:47.772Z,5.03
2022-09-16T08:04:16.179Z,6.03
2022-09-16T08:06:44.350Z,5.13
2022-09-16T08:09:37.836Z,8.68
2022-09-16T08:12:03.063Z,8.68
2022-09-16T08:14:33.356Z,5.47
2022-09-16T08:17:02.913Z,7.57
2022-09-16T08:19:31.159Z,6.72
2022-09-16T08:21:59.325Z,6.47
2022-09-16T08:24:27.745Z,7.32
2022-09-16T08:29:25.841Z,7.07
2022-09-16T08:31:55.482Z,7.13
2022-09-16T08:34:23.908Z,5.00
2022-09-16T08:36:52.301Z,6.55
2022-09-16T08:39:21.653Z,6.30
2022-09-16T08:42:23.340Z,7.65
2022-09-16T08:45:00.383Z,6.53
2022-09-16T08:47:43.289Z,5.47
2022-09-16T08:50:17.227Z,7.68
2022-09-16T08:52:46.797Z,6.07
2022-09-16T08:55:19.685Z,6.18
2022-09-16T08:57:54.860Z,6.43
2022-09-16T09:00:23.228Z,5.45
2022-09-16T09:02:56.903Z,5.38
2022-09-16T09:05:35.949Z,5.90
2022-09-16T09:08:17.323Z,5.72
2022-09-16T09:10:50.581Z,4.97
2022-09-16T09:13:39.800Z,4.00
2022-09-16T09:16:17.385Z,4.80
2022-09-16T09:19:08.530Z,5.35
2022-09-16T09:21:46.744Z,6.72
2022-09-16T09:24:31.292Z,5.13
2022-09-16T09:27:05.889Z,4.00
2022-09-16T09:29:50.828Z,4.43
2022-09-16T09:32:24.857Z,6.40
2022-09-16T09:35:07.922Z,4.38
2022-09-16T09:37:49.528Z,4.68
2022-09-16T09:40:23.615Z,4.95
2022-09-16T09:42:55.873Z,6.55
2022-09-16T09:45:29.129Z,5.93
2022-09-16T09:48:02.220Z,4.40
2022-09-16T09:50:37.507Z,6.32
2022-09-16T09:53:14.492Z,5.80
2022-09-16T09:55:43.632Z,6.25
2022-09-16T09:58:28.212Z,5.40
2022-09-16T10:00:57.752Z,4.45
2022-09-16T10:03:27.284Z,4.65
2022-09-16T10:05:56.956Z,5.55
2022-09-16T10:08:30.095Z,6.40
2022-09-16T10:11:00.980Z,7.40
2022-09-16T10:13:31.289Z,6.00
2022-09-16T10:16:10.605Z,5.63
2022-09-16T10:18:39.297Z,6.63
2022-09-16T10:21:11.105Z,7.07
2022-09-16T10:23:40.192Z,6.10
2022-09-16T10:26:20.527Z,5.82
2022-09-16T10:28:56.550Z,6.93
2022-09-16T10:31:29.251Z,5.05
2022-09-16T10:34:01.789Z,7.32
2022-09-16T10:36:34.751Z,5.07
2022-09-16T10:39:05.795Z,6.00
2022-09-16T10:41:36.188Z,9.70
2022-09-16T10:44:08.679Z,6.55
2022-09-16T10:46:37.904Z,7.63
2022-09-16T10:49:13.384Z,4.77
2022-09-16T10:51:44.696Z,5.50
2022-09-16T10:54:25.786Z,4.07
2022-09-16T10:56:53.993Z,5.05
2022-09-16T10:59:22.449Z,4.28
2022-09-16T11:02:00.260Z,5.35
2022-09-16T11:04:55.507Z,5.63
2022-09-16T11:07:35.858Z,5.40
2022-09-16T11:10:14.603Z,6.00
2022-09-16T11:13:18.160Z,7.65
2022-09-16T11:16:00.463Z,4.45
2022-09-16T11:18:49.399Z,4.07
2022-09-16T11:21:44.742Z,3.30
2022-09-16T11:24:46.981Z,4.97
2022-09-16T11:27:25.369Z,4.78
2022-09-16T11:30:10.862Z,4.95
2022-09-16T11:32:58.988Z,7.65
2022-09-16T11:35:48.396Z,10.13
2022-09-16T11:38:24.922Z,5.97
2022-09-16T11:41:02.729Z,7.15
2022-09-16T11:43:48.312Z,7.40
2022-09-16T11:46:24.452Z,7.88
2022-09-16T11:49:13.840Z,8.13
2022-09-16T11:51:57.015Z,4.47
2022-09-16T11:54:40.575Z,3.80
2022-09-16T11:57:17.319Z,3.03
2022-09-16T11:59:51.962Z,3.95
2022-09-16T12:02:26.770Z,3.63
2022-09-16T12:05:03.623Z,3.63
2022-09-16T12:07:37.769Z,3.30
2022-09-16T12:10:15.290Z,2.47
2022-09-16T12:12:48.256Z,2.55
2022-09-16T12:15:21.633Z,3.15
2022-09-16T12:17:56.111Z,3.10
2022-09-16T12:20:31.046Z,2.50
2022-09-16T12:23:07.638Z,2.70
2022-09-16T12:25:44.272Z,2.83
2022-09-16T12:28:21.521Z,1.77
2022-09-16T12:30:57.384Z,2.90
2022-09-16T12:33:33.285Z,1.90
2022-09-16T12:36:06.370Z,3.35
2022-09-16T12:38:34.839Z,2.50
2022-09-16T12:41:21.894Z,2.85
2022-09-16T12:44:30.459Z,2.33
2022-09-16T12:47:20.573Z,2.53
2022-09-16T12:50:23.491Z,2.28
2022-09-16T12:53:19.318Z,3.50
2022-09-16T12:56:01.511Z,2.20
2022-09-16T12:58:58.685Z,2.28
2022-09-16T13:01:31.630Z,2.45
2022-09-16T13:04:05.188Z,2.60
2022-09-16T13:06:36.744Z,3.50
2022-09-16T13:14:33.449Z,2.08
2022-09-16T13:17:03.603Z,2.05
2022-09-16T13:19:39.128Z,2.20
2022-09-16T13:22:20.451Z,2.80
2022-09-16T13:24:51.529Z,2.38
2022-09-16T13:27:32.352Z,3.53
2022-09-16T13:30:32.350Z,3.23
2022-09-16T13:33:18.366Z,4.50
2022-09-16T13:35:50.214Z,3.17
2022-09-16T13:38:39.799Z,3.88
2022-09-16T13:41:11.196Z,4.47
2022-09-16T13:43:51.696Z,3.35
2022-09-16T13:46:38.653Z,3.35
2022-09-16T13:49:24.661Z,3.13
2022-09-16T13:51:53.894Z,4.70
2022-09-16T13:54:31.004Z,4.38
2022-09-16T13:57:29.707Z,6.53
2022-09-16T14:00:18.688Z,7.82
2022-09-16T14:03:16.368Z,9.43
2022-09-16T14:06:07.294Z,8.68
2022-09-16T14:08:44.577Z,4.13
2022-09-16T14:11:23.692Z,3.90
2022-09-16T14:16:45.907Z,3.38
2022-09-16T14:19:24.790Z,3.20
2022-09-16T14:22:05.210Z,2.95
2022-09-16T14:24:38.445Z,4.53
2022-09-16T14:27:07.677Z,2.85
2022-09-16T14:29:35.908Z,2.97
2022-09-16T14:32:05.865Z,4.88
2022-09-16T14:34:36.712Z,4.32
2022-09-16T14:37:07.173Z,2.97
2022-09-16T14:39:45.709Z,2.65
2022-09-16T14:42:18.382Z,4.05
2022-09-16T14:44:49.711Z,2.83
2022-09-16T14:47:39.744Z,4.00
2022-09-16T14:50:18.382Z,3.47
2022-09-16T14:52:56.755Z,4.65
2022-09-16T14:55:27.385Z,3.97
2022-09-16T14:57:55.769Z,4.93
2022-09-16T15:00:24.938Z,3.92
2022-09-16T15:02:57.706Z,5.43
2022-09-16T15:05:33.397Z,3.55
2022-09-16T15:08:14.506Z,3.78
2022-09-16T15:10:53.935Z,4.93
2022-09-16T15:13:25.592Z,5.22
2022-09-16T15:18:27.010Z,8.65
2022-09-16T15:21:04.465Z,10.48
2022-09-16T15:23:36.027Z,9.45
2022-09-16T15:28:54.463Z,7.10
2022-09-16T15:34:04.655Z,4.65
2022-09-16T15:36:41.035Z,5.70
2022-09-16T15:39:26.690Z,7.10
2022-09-16T15:42:11.253Z,4.50
2022-09-16T15:44:45.160Z,5.07
2022-09-16T15:47:19.799Z,6.50
2022-09-16T15:49:51.343Z,6.00
2022-09-16T15:54:52.828Z,6.88
2022-09-16T15:57:29.313Z,7.30
2022-09-16T16:00:10.528Z,7.88
2022-09-16T16:02:41.627Z,5.60
2022-09-16T16:05:13.107Z,7.20
2022-09-16T16:07:44.095Z,7.28
2022-09-16T16:10:17.008Z,7.15
2022-09-16T16:12:47.919Z,5.80
2022-09-16T16:15:18.232Z,5.85
2022-09-16T16:17:46.641Z,4.72
2022-09-16T16:20:16.084Z,5.55
2022-09-16T16:22:45.673Z,6.20
2022-09-16T16:25:15.657Z,6.20
2022-09-16T16:27:44.269Z,6.20
2022-09-16T16:30:13.569Z,4.55
2022-09-16T16:32:42.117Z,5.30
2022-09-16T16:35:10.781Z,4.53
2022-09-16T16:37:47.523Z,5.07
2022-09-16T16:40:17.663Z,6.20
2022-09-16T16:42:45.973Z,6.05
2022-09-16T16:45:14.616Z,6.53
2022-09-16T16:47:42.949Z,6.97
2022-09-16T16:50:11.935Z,6.00
2022-09-16T16:52:40.358Z,7.63
2022-09-16T16:55:09.554Z,6.00
2022-09-16T16:57:39.256Z,4.78
2022-09-16T17:00:08.563Z,5.05
2022-09-16T17:02:36.799Z,6.03
2022-09-16T17:05:05.702Z,5.28
2022-09-16T17:07:33.884Z,5.45
2022-09-16T17:10:02.050Z,5.15
2022-09-16T17:12:30.241Z,6.13
2022-09-16T17:14:59.766Z,6.93
2022-09-16T17:17:31.614Z,4.72
2022-09-16T17:20:00.362Z,6.85
2022-09-16T17:22:28.628Z,5.88
2022-09-16T17:24:56.850Z,7.38
2022-09-16T17:27:27.051Z,8.48
2022-09-16T17:29:55.337Z,8.75
2022-09-16T17:32:25.139Z,9.70
2022-09-16T17:34:53.798Z,9.90
2022-09-16T17:37:21.961Z,13.30
2022-09-16T17:39:50.254Z,8.63
2022-09-16T17:42:18.451Z,8.02
2022-09-16T17:44:46.657Z,11.13
2022-09-16T17:47:15.099Z,9.35
2022-09-16T17:49:44.662Z,10.32
2022-09-16T17:52:12.857Z,11.68
2022-09-16T17:54:42.077Z,11.82
2022-09-16T17:57:10.293Z,9.60
2022-09-16T17:59:38.527Z,9.45
2022-09-16T18:02:07.720Z,8.65
2022-09-16T18:04:36.023Z,8.35
2022-09-16T18:07:05.665Z,8.05
2022-09-16T18:09:33.944Z,8.13
2022-09-16T18:12:02.341Z,8.32
2022-09-16T18:14:30.554Z,8.38
2022-09-16T18:16:59.749Z,7.63
2022-09-16T18:19:28.346Z,7.38
2022-09-16T18:21:56.549Z,9.00
2022-09-16T18:29:44.588Z,8.80
2022-09-16T18:32:12.880Z,10.25
2022-09-16T18:34:41.076Z,9.98
2022-09-16T18:37:09.344Z,8.98
2022-09-16T18:39:37.607Z,8.25
2022-09-16T18:42:06.049Z,10.02
2022-09-16T18:44:34.220Z,7.05
2022-09-16T18:47:03.755Z,8.48
2022-09-16T18:49:31.991Z,7.45
2022-09-16T19:18:58.355Z,8.95
2022-09-16T19:21:26.974Z,8.25
2022-09-16T19:23:58.536Z,7.35
2022-09-16T19:28:55.417Z,8.00
2022-09-16T19:31:23.666Z,8.02
2022-09-16T19:33:51.945Z,7.93
2022-09-16T19:36:24.120Z,10.77
2022-09-16T19:38:53.123Z,8.90
2022-09-16T19:41:23.092Z,10.05
2022-09-16T19:43:55.023Z,9.13
2022-09-16T19:46:23.997Z,8.25
2022-09-16T19:48:52.852Z,10.20
2022-09-16T19:51:24.644Z,10.75
2022-09-16T19:53:54.150Z,11.90
2022-09-16T19:56:24.256Z,9.20
2022-09-16T19:58:53.455Z,8.75
2022-09-16T20:01:23.334Z,9.15
2022-09-16T20:03:51.975Z,7.63
2022-09-16T20:06:22.828Z,10.80
2022-09-16T20:08:57.027Z,7.40
2022-09-16T20:11:26.921Z,9.02
2022-09-16T20:13:56.925Z,7.65
2022-09-16T20:16:26.570Z,11.23
2022-09-16T20:18:54.828Z,10.68
2022-09-16T20:21:27.039Z,9.45
2022-09-16T20:23:55.967Z,9.00
2022-09-16T20:26:24.928Z,9.85
2022-09-16T20:28:55.386Z,10.98
2022-09-16T20:31:25.466Z,10.35
2022-09-16T20:33:54.341Z,13.18
2022-09-16T20:36:25.721Z,9.27
2022-09-16T20:38:54.148Z,7.07
2022-09-16T20:41:24.267Z,8.30
2022-09-16T20:43:53.447Z,7.13
2022-09-16T20:46:23.284Z,9.48
2022-09-16T20:48:54.400Z,7.38
2022-09-16T20:51:25.382Z,9.38
2022-09-16T20:53:55.109Z,9.32
2022-09-16T20:56:24.195Z,7.10
2022-09-16T20:58:52.931Z,8.93
2022-09-16T21:01:22.810Z,6.57
2022-09-16T21:03:53.352Z,6.53
2022-09-16T21:06:23.237Z,6.80
2022-09-16T21:08:54.879Z,7.05
2022-09-16T21:13:55.327Z,7.28
2022-09-16T21:16:24.751Z,5.18
2022-09-16T21:18:55.409Z,6.32
2022-09-16T21:21:26.391Z,7.40
2022-09-16T21:23:56.573Z,6.38
2022-09-16T21:26:28.653Z,4.90
2022-09-16T21:28:58.721Z,5.40
2022-09-16T21:31:30.587Z,4.30
2022-09-16T21:34:00.102Z,6.03
2022-09-16T21:36:29.897Z,5.38
2022-09-16T21:38:59.296Z,5.90
2022-09-16T21:41:27.772Z,8.10
2022-09-16T21:43:57.222Z,6.63
2022-09-16T21:46:27.843Z,5.70
2022-09-16T21:49:00.146Z,7.23
2022-09-16T21:51:34.991Z,5.82
2022-09-16T21:54:03.445Z,8.45
2022-09-16T21:56:32.515Z,8.30
2022-09-16T21:59:01.556Z,8.55
2022-09-16T22:01:31.711Z,7.50
2022-09-16T22:04:02.155Z,7.47
2022-09-16T22:06:32.280Z,12.38
2022-09-16T22:09:02.892Z,9.23
2022-09-16T22:11:32.924Z,9.35
2022-09-16T22:14:02.921Z,9.02
2022-09-16T22:16:33.989Z,8.75
2022-09-16T22:19:03.901Z,8.10
2022-09-16T22:21:35.254Z,7.40
2022-09-16T22:24:04.859Z,9.02
2022-09-16T22:26:33.473Z,8.40
2022-09-16T22:29:01.809Z,5.72
2022-09-16T22:31:32.188Z,8.10
2022-09-16T22:34:01.962Z,7.63
2022-09-16T22:36:32.437Z,6.57
2022-09-16T22:39:04.831Z,6.43
2022-09-16T22:41:34.019Z,6.47
2022-09-16T22:44:02.558Z,6.85
2022-09-16T22:46:33.100Z,5.45
2022-09-16T22:49:01.902Z,7.65
2022-09-16T22:51:30.601Z,6.30
2022-09-16T22:53:59.041Z,7.60
2022-09-16T22:56:32.179Z,6.43
2022-09-16T22:59:02.574Z,6.75
2022-09-16T23:01:32.982Z,4.90
2022-09-16T23:04:03.098Z,5.65
2022-09-16T23:06:32.972Z,6.70
2022-09-16T23:09:02.086Z,6.68
2022-09-16T23:11:33.910Z,6.32
2022-09-16T23:14:02.643Z,7.30
2022-09-16T23:16:32.908Z,4.95
2022-09-16T23:19:03.340Z,5.63
2022-09-16T23:21:32.369Z,6.13
2022-09-16T23:24:02.368Z,7.70
2022-09-16T23:26:34.000Z,7.35
2022-09-16T23:31:33.474Z,5.72
2022-09-16T23:34:01.895Z,8.73
2022-09-16T23:36:30.249Z,7.90
2022-09-16T23:38:58.631Z,7.22
2022-09-16T23:41:27.835Z,6.97
2022-09-16T23:43:58.169Z,7.63
2022-09-16T23:46:31.153Z,6.47
2022-09-16T23:49:00.063Z,6.75
2022-09-16T23:51:29.882Z,6.82
2022-09-16T23:53:58.916Z,7.38
2022-09-16T23:56:27.638Z,4.82
2022-09-16T23:59:00.834Z,5.28
